World of Logs combat log analyzer allows gamers to save, share and analyze their raiding experiences conveniently and thoroughly in the Blizzard MMO World of Warcraft. If you're new here, make sure you check out the tour for a 1 minute introduction. If you have any questions, we're happy to answer them on the forums.

DPS HPS
Odyn
Helya
Guarm
Reports for Galakras - statistics
# Date Time Damage DPS Guild Realm
1 08 Oct 2014 06:10 1063.26M 2866862.4 Entropy EU-Bronzebeard
2 17 Sep 2014 06:16 1129.83M 3001097.3 Windshock EU-Arathor
3 19 Sep 2014 06:23 1087.87M 2836130.4 Phoenix EU-Burning Legion
4 10 Sep 2014 06:25 1044.53M 2706504.5 Total Control EU-Argent Dawn
5 14 Sep 2014 06:26 1113.77M 2883397.3 Ambi US-Arygos
6 30 Sep 2014 06:40 1050.57M 2622985.1 Kimanshy Logs EU-Свежеватель Душ
7 30 Sep 2014 06:40 1046.28M 2612191.2 vaironhead ftw EU-Ревущий фьорд
8 23 Sep 2014 06:44 1134.88M 2803557.1 SPARKS EU-Kazzak
9 10 Sep 2014 06:45 1123.77M 2773811.8 Merge EU-Silvermoon
10 10 Sep 2014 06:45 1124.20M 2774714.5 Merge EU-Silvermoon
11 13 Oct 2014 06:53 1260.52M 3047485.0 dream big EU-Onyxia
12 13 Oct 2014 06:53 1260.52M 3047374.4 dream big EU-Onyxia
13 13 Oct 2014 06:53 1260.52M 3047101.9 dream big EU-Onyxia
14 13 Oct 2014 06:53 1260.52M 3046748.4 dream big EU-Onyxia
15 17 Sep 2014 06:56 1141.25M 2740735.4 Попа пахнет розами EU-Дракономор
16 14 Sep 2014 06:57 1165.69M 2794094.2 untitled spreadsheet EU-Eredar
17 12 Oct 2014 07:01 1156.15M 2741901.5 untitled spreadsheet EU-Eredar
18 18 Sep 2014 07:01 1208.94M 2865182.8 Revival X EU-Cho’gall
19 08 Oct 2014 07:03 1153.33M 2724755.4 Yolo EU-Ravencrest
20 24 Sep 2014 07:03 1154.53M 2726069.2 Total Control EU-Argent Dawn
21 17 Sep 2014 07:05 1157.62M 2720363.7 Masterplan EU-Mal'Ganis
22 01 Oct 2014 07:05 1178.81M 2769775.3 Nobody loves Gnimo EU-Mannoroth
23 10 Sep 2014 07:05 1243.28M 2921200.9 KerioxLog EU-Khaz Modan
24 10 Sep 2014 07:05 1143.32M 2686287.3 amaze EU-Khaz Modan
25 01 Oct 2014 07:07 1161.74M 2719515.4 Entropy EU-Bronzebeard
26 01 Oct 2014 07:07 1161.74M 2719394.4 Entropy EU-Bronzebeard
27 01 Oct 2014 07:07 1161.74M 2719318.1 Entropy EU-Bronzebeard
28 26 Aug 2014 07:07 1206.63M 2822909.3 Kianapiranha Likes Dataz US-Mug'thol
29 08 Oct 2014 07:08 1172.68M 2736512.5 Merge EU-Silvermoon
30 22 Sep 2014 07:09 1322.58M 3082501.9 kevin EU-Frostmane
31 22 Sep 2014 07:09 1331.61M 3102651.7 Sparks EU-The Maelstrom
32 10 Sep 2014 07:10 1218.22M 2829944.9 Maccei's log EU-Arathor
33 04 Oct 2014 07:10 1220.46M 2834995.5 Kinesis US-Zul'jin
34 08 Oct 2014 07:11 1129.92M 2620648.1 Total Control EU-Argent Dawn
35 13 Sep 2014 07:12 1228.35M 2839704.6 Kinesis US-Zul'jin
36 13 Sep 2014 07:12 1232.23M 2848630.6 Crux US-Zul'jin
37 01 Oct 2014 07:12 1131.92M 2614810.4 Myth EU-Blackmoore
38 20 Sep 2014 07:14 1181.72M 2720245.0 Рак Гейминг EU-Свежеватель Душ
39 08 Sep 2014 07:14 1171.42M 2695762.1 eXample EU-Ravencrest
40 25 Sep 2014 07:15 1134.30M 2603353.6 bamoida EU-Blackrock
41 28 Sep 2014 07:16 1237.97M 2838335.8 Pressure EU-Mal'Ganis
42 28 Sep 2014 07:16 1244.64M 2853562.4 gifted EU-Mal'Ganis
43 05 Oct 2014 07:16 1177.67M 2698555.4 gifted EU-Mal'Ganis
44 05 Oct 2014 07:16 1171.29M 2683859.5 gifted EU-Mal'Ganis
45 30 Sep 2014 07:16 1235.49M 2828051.2 Entropy EU-Bronzebeard
46 30 Sep 2014 07:16 1235.49M 2827934.7 Entropy EU-Bronzebeard
47 05 Oct 2014 07:16 1249.24M 2859080.3 FA Logs EU-Nozdormu
48 01 Oct 2014 07:16 1227.73M 2809734.0 The Howl EU-Kael'thas
49 20 Sep 2014 07:17 1207.73M 2761441.1 lel EU-Blackrock
50 20 Sep 2014 07:17 1207.73M 2761403.2 Uniquê EU-Blackrock
51 01 Oct 2014 07:17 1340.98M 3064207.3 Azys EU-Arathor
52 14 Sep 2014 07:17 1138.51M 2600841.4 Labardan EU-Silvermoon
53 03 Sep 2014 07:18 1207.18M 2752439.8 Entropy EU-Bronzebeard
54 11 Oct 2014 07:18 1156.75M 2636775.0 Eommy Best EU-Гордунни
55 24 Sep 2014 07:19 1165.44M 2650439.9 FA Logs EU-Nozdormu
56 08 Oct 2014 07:21 1127.57M 2555968.3 Insiem EU-Hyjal
57 09 Oct 2014 07:22 1178.29M 2665215.9 Shadow Priest EU-Eredar
58 16 Sep 2014 07:22 1150.74M 2597789.5 Nonames' random logs US-Shadowmoon
59 01 Oct 2014 07:23 1188.11M 2679849.0 Total Control EU-Argent Dawn
60 09 Sep 2014 07:23 1228.95M 2771577.1 Total Control EU-Argent Dawn
61 20 Sep 2014 07:24 1248.74M 2808665.8 macht DRUCK EU-Mal'Ganis
62 20 Sep 2014 07:24 1244.43M 2798815.7 Tempest EU-Azshara
63 16 Sep 2014 07:24 1158.50M 2605540.0 Prime EU-Tarren Mill
64 21 Aug 2014 07:24 1222.63M 2747622.0 Entropy EU-Bronzebeard
65 18 Sep 2014 07:25 1153.32M 2591628.8 Genetics EU-Outland
66 13 Sep 2014 07:25 1238.45M 2782282.5 Eommy Best EU-Гордунни
67 20 Sep 2014 07:25 1223.62M 2746852.4 Eommy Best EU-Гордунни
68 20 Sep 2014 07:25 1223.62M 2746753.7 Пуслятина EU-Гордунни
69 18 Sep 2014 07:26 1163.03M 2607597.2 #Hashtag EU-Vol'jin
70 18 Sep 2014 07:26 1163.03M 2607597.2 #Hashtag EU-Vol'jin
71 18 Sep 2014 07:26 1163.03M 2607509.6 Jaxance EU-Vol'jin
72 18 Sep 2014 07:26 1155.53M 2590662.9 #Hashtag EU-Vol'jin
73 10 Sep 2014 07:26 1236.74M 2771257.9 Requiem of the Fallen US-Kel'Thuzad
74 27 Sep 2014 07:26 1257.39M 2814808.9 Eommy Best EU-Гордунни
75 16 Sep 2014 07:26 1228.39M 2748801.3 Lymi Logs US-Stormrage
76 22 Sep 2014 07:27 1149.56M 2567610.8 dream big EU-Onyxia
77 22 Sep 2014 07:27 1149.56M 2567547.8 dream big EU-Onyxia
78 30 Sep 2014 07:27 1177.56M 2628523.6 Flawless Guild US-Azralon
79 30 Sep 2014 07:27 1177.56M 2628523.6 Flawless Guild US-Azralon
80 05 Oct 2014 07:28 1228.31M 2741383.2 Ясно понятно EU-Гордунни
81 05 Oct 2014 07:28 1228.31M 2741022.3 Mira logs EU-Черный Шрам
82 10 Sep 2014 07:28 1175.41M 2622898.4 Emerge EU-Gilneas
83 10 Sep 2014 07:28 1170.11M 2610984.2 Emerge EU-Gilneas
84 10 Sep 2014 07:28 1170.11M 2610984.2 Orden der dunklen Flamme EU-Ulduar
85 10 Sep 2014 07:28 1175.41M 2622734.6 Nuffle-Logs EU-Gilneas
86 06 Oct 2014 07:28 1155.34M 2575408.3 eXample EU-Ravencrest
87 01 Oct 2014 07:28 1145.46M 2552626.4 Jiwwi EU-Гордунни
88 09 Sep 2014 07:28 1173.80M 2614761.1 Forgot to Wipe EU-Draenor
89 07 Oct 2014 07:28 1130.85M 2518887.4 Eagan US-Ghostlands
90 24 Sep 2014 07:28 1152.64M 2567189.5 Raidrunners EU-Blackhand
91 02 Oct 2014 07:29 1187.27M 2642418.5 Orden der Isalani EU-Kult der Verdammten
92 18 Sep 2014 07:29 1226.13M 2728311.8 Entropy EU-Bronzebeard
93 02 Oct 2014 07:29 1150.72M 2558713.1 Devastation EU-Thrall
94 01 Oct 2014 07:29 1170.42M 2602501.5 Forgotten EU-Balnazzar
95 07 Oct 2014 07:29 1200.60M 2669209.9 The Coalition US-Lightbringer
96 28 Sep 2014 07:30 1190.03M 2641136.4 Myth EU-Blackmoore
97 16 Sep 2014 07:31 1144.27M 2534814.6 Guildless Noobs US-Magtheridon
98 15 Sep 2014 07:32 1197.16M 2648261.7 Aureus EU-Draenor
99 15 Sep 2014 07:32 1196.92M 2647659.3 Aureus EU-Draenor
100 07 Oct 2014 07:32 1248.70M 2761043.9 Stellshotz Logs US-Sargeras

Please do not close the page with the ad you want to report.

I've posted a guide on how to report misbehaving ads on the forum. Please follow the instructions and help make the internet a safer place. Thanks for you time.